Cornwall Bridge, Connecticut
Current Conditions -  °F | °C
As of 3:55 AM on Friday 31 Oct 2014 (Local Time) from KOXC Reporting Station
Overcast Overcast  
Wind Chill: 34°   Ceiling: 4700
Heat Index: 39°   Visibility: 10mi
Dew Point: 27°   Wind: 7mph
Humidity: 61%   Direction: 20°NNE
Pressure: 30.02"   Gusts: NA
Location:  41.82°N, 73.37°W
Report Text: KOXC 310755Z 02006KT 10SM OVC047 04/M03 A3002 RMK AO1
Loading
Personal Weather Stations






























Interactive Weather Map
Tropical Storm Tracking
New forecast layout! Learn more

10-Day Weather Forecast

Advertisements
Track Severe Weather on mobile